Time;durP1;ratioP1;P1;durP2;ratioP2;P2;SDS_P1;SDS_P2;PMS_P1;PMS_P2;Temp;Humidity;BMP_temperature;BMP_pressure;BME280_temperature;BME280_humidity;BME280_pressure;Samples;Min_cycle;Max_cycle;Signal;HPM_P1;HPM_P2
2021/05/20 00:01:39;;;;;;;1.58;1.17;;;9.80;78.60;;;8.25;76.61;96331.41;5021819;28;20038;-72
2021/05/20 00:04:05;;;;;;;2.70;1.17;;;9.90;78.20;;;8.27;76.51;96330.25;5014125;28;20119;-72
2021/05/20 00:06:30;;;;;;;2.83;1.40;;;9.90;78.30;;;8.30;76.33;96342.19;5014553;28;20510;-72
2021/05/20 00:08:56;;;;;;;2.03;1.40;;;9.90;78.60;;;8.30;76.32;96337.78;4998162;28;20033;-71
2021/05/20 00:11:22;;;;;;;2.15;1.40;;;10.00;78.80;;;8.29;76.45;96335.31;5031494;28;20096;-71
2021/05/20 00:13:48;;;;;;;4.15;1.52;;;9.90;78.20;;;8.30;76.49;96347.44;5031441;28;20087;-71
2021/05/20 00:16:13;;;;;;;1.63;1.30;;;10.00;78.50;;;8.29;76.78;96344.00;5030484;28;20057;-71
2021/05/20 00:18:39;;;;;;;3.40;1.38;;;9.90;78.80;;;8.31;76.79;96338.59;5012132;28;20048;-71
2021/05/20 00:21:05;;;;;;;3.00;1.65;;;10.00;78.70;;;8.30;76.92;96336.94;5031161;28;20072;-71
2021/05/20 00:23:30;;;;;;;4.55;1.40;;;10.00;79.00;;;8.30;76.97;96344.81;5031093;28;20033;-71
2021/05/20 00:25:56;;;;;;;2.35;1.40;;;10.00;78.60;;;8.30;77.07;96339.56;5015061;28;20417;-71
2021/05/20 00:28:22;;;;;;;2.75;1.58;;;10.10;78.80;;;8.33;76.76;96341.03;5014359;28;20033;-71
2021/05/20 00:30:48;;;;;;;1.98;1.40;;;10.00;79.10;;;8.33;77.06;96343.66;5045747;28;20040;-70
2021/05/20 00:33:13;;;;;;;4.15;1.80;;;10.00;78.70;;;8.32;76.63;96332.34;5022444;28;20041;-71
2021/05/20 00:35:39;;;;;;;3.25;1.88;;;10.00;78.60;;;8.30;77.24;96331.72;5009878;28;20045;-72
2021/05/20 00:38:10;;;;;;;2.67;1.63;;;9.80;78.80;;;8.27;77.46;96334.69;5031086;28;20038;-71
2021/05/20 00:40:35;;;;;;;5.47;1.70;;;9.90;78.90;;;8.29;76.91;96341.38;4996518;28;20045;-71
2021/05/20 00:43:01;;;;;;;2.10;1.52;;;9.90;79.10;;;8.27;77.02;96345.16;5032359;28;20235;-71
2021/05/20 00:45:27;;;;;;;2.83;1.52;;;9.80;78.90;;;8.26;76.88;96346.97;5030746;28;20053;-71
2021/05/20 00:47:53;;;;;;;3.33;1.45;;;9.80;79.20;;;8.26;77.19;96340.91;5031175;28;20168;-71
2021/05/20 00:50:18;;;;;;;1.70;1.20;;;9.80;79.20;;;8.26;77.40;96341.72;5029529;28;20119;-71
2021/05/20 00:52:44;;;;;;;4.15;1.70;;;9.90;79.20;;;8.28;76.99;96345.00;5014310;28;20037;-71
2021/05/20 00:55:12;;;;;;;2.45;1.60;;;9.90;79.20;;;8.28;76.88;96344.16;5030739;28;20056;-71
2021/05/20 00:57:37;;;;;;;2.15;1.40;;;9.80;79.40;;;8.27;77.51;96337.28;5013473;28;20040;-71
2021/05/20 01:00:11;;;;;;;2.72;1.80;;;9.80;79.30;;;8.27;78.05;96332.06;5029503;28;20029;-70
2021/05/20 01:02:38;;;;;;;4.18;1.80;;;9.80;79.40;;;8.22;76.99;96334.38;5036244;28;20037;-72
2021/05/20 01:05:06;;;;;;;5.15;1.77;;;9.80;79.30;;;8.23;77.72;96341.25;5025732;28;20037;-70
2021/05/20 01:07:32;;;;;;;2.45;1.52;;;9.90;79.40;;;8.23;77.14;96341.25;5013632;28;20072;-70
2021/05/20 01:09:57;;;;;;;2.00;1.55;;;9.80;79.30;;;8.24;77.33;96348.13;5030156;28;20038;-71
2021/05/20 01:12:23;;;;;;;4.55;1.80;;;9.90;79.40;;;8.22;77.05;96337.81;5013158;28;20049;-69
2021/05/20 01:14:49;;;;;;;3.42;1.88;;;9.80;79.30;;;8.21;77.40;96337.97;5014070;28;20034;-69
2021/05/20 01:17:15;;;;;;;4.18;1.92;;;9.80;79.20;;;8.21;77.55;96344.03;5029402;28;20119;-70
2021/05/20 01:19:43;;;;;;;3.10;1.92;;;9.90;79.50;;;8.23;77.88;96341.25;5023760;28;20030;-70
2021/05/20 01:22:09;;;;;;;2.30;1.75;;;9.90;79.60;;;8.23;77.67;96344.69;5030254;28;20068;-71
2021/05/20 01:24:35;;;;;;;2.67;1.73;;;9.90;79.50;;;8.21;77.75;96344.03;5029761;28;20088;-71
2021/05/20 01:27:04;;;;;;;2.63;1.52;;;9.80;79.70;;;8.20;78.45;96346.81;5013426;28;20064;-70
2021/05/20 01:29:30;;;;;;;2.35;1.65;;;9.80;79.80;;;8.22;77.44;96347.47;5013091;28;20033;-71
2021/05/20 01:31:57;;;;;;;2.80;1.90;;;9.90;79.60;;;8.18;77.78;96343.56;5013055;28;20566;-71
2021/05/20 01:34:23;;;;;;;4.90;2.00;;;9.70;79.80;;;8.16;77.72;96348.16;5002531;28;20084;-71
2021/05/20 01:36:49;;;;;;;2.97;1.98;;;9.70;80.40;;;8.13;78.25;96340.59;4985687;28;20042;-71
2021/05/20 01:39:14;;;;;;;3.25;2.15;;;9.60;80.20;;;8.12;77.90;96341.59;5010269;28;20034;-70
2021/05/20 01:41:40;;;;;;;3.05;2.08;;;9.60;80.20;;;8.09;78.11;96334.06;5027335;28;20464;-70
2021/05/20 01:44:06;;;;;;;4.35;2.13;;;9.60;80.60;;;8.09;78.23;96344.53;4993544;28;20041;-70
2021/05/20 01:46:32;;;;;;;3.67;2.35;;;9.60;80.70;;;8.10;78.52;96346.19;5012454;28;20519;-70
2021/05/20 01:48:57;;;;;;;4.20;2.42;;;9.70;80.60;;;8.11;78.59;96347.81;5013003;28;20033;-70
2021/05/20 01:51:23;;;;;;;3.40;2.40;;;9.70;80.10;;;8.09;78.17;96350.59;5029293;28;20416;-70
2021/05/20 01:53:53;;;;;;;4.80;2.60;;;9.60;80.40;;;8.07;78.52;96343.91;5030951;28;20041;-70
2021/05/20 01:56:19;;;;;;;4.55;2.70;;;9.60;81.00;;;8.03;77.95;96345.22;5029170;28;20030;-70
2021/05/20 01:58:45;;;;;;;4.53;2.85;;;9.60;80.80;;;8.03;78.12;96340.81;5013056;28;20507;-70
2021/05/20 02:01:11;;;;;;;3.58;2.45;;;9.60;80.20;;;8.01;77.96;96347.19;4996079;28;20041;-71
2021/05/20 02:03:37;;;;;;;3.05;2.50;;;9.40;80.40;;;7.95;78.40;96344.25;5013236;28;20099;-71
2021/05/20 02:06:03;;;;;;;4.63;2.63;;;9.50;80.60;;;7.93;78.42;96356.72;5012238;28;20122;-69
2021/05/20 02:08:30;;;;;;;5.63;3.03;;;9.40;80.90;;;7.92;78.50;96347.22;5028857;28;20045;-70
2021/05/20 02:10:56;;;;;;;4.10;2.90;;;9.40;80.90;;;7.88;78.27;96350.31;5028865;28;20404;-70
2021/05/20 02:13:22;;;;;;;4.32;2.38;;;9.30;81.00;;;7.85;78.60;96343.59;5028437;28;20034;-71
2021/05/20 02:15:47;;;;;;;4.45;2.75;;;9.40;80.70;;;7.81;78.23;96342.31;5009523;28;20117;-70
2021/05/20 02:18:13;;;;;;;5.28;2.78;;;9.30;80.70;;;7.78;78.50;96347.06;4995449;28;20029;-70
2021/05/20 02:20:39;;;;;;;3.75;2.60;;;9.20;81.00;;;7.74;78.99;96351.81;4983133;28;20042;-70
2021/05/20 02:23:05;;;;;;;5.95;2.97;;;9.20;81.00;;;7.71;78.50;96352.16;5006721;28;20405;-70
2021/05/20 02:25:31;;;;;;;4.32;2.47;;;9.10;81.40;;;7.67;78.52;96351.63;5028751;28;20177;-70
2021/05/20 02:27:57;;;;;;;3.90;2.45;;;9.10;81.20;;;7.64;79.02;96351.97;5028678;28;20052;-70
2021/05/20 02:30:23;;;;;;;4.53;3.20;;;9.10;81.70;;;7.61;79.46;96352.28;5011850;28;20069;-71
2021/05/20 02:32:49;;;;;;;5.03;3.03;;;9.10;81.70;;;7.62;78.75;96346.09;5028781;28;20044;-70
2021/05/20 02:35:14;;;;;;;5.30;2.90;;;9.10;81.70;;;7.61;78.82;96346.25;5009152;28;20057;-70
2021/05/20 02:37:40;;;;;;;4.13;2.92;;;9.10;81.40;;;7.59;78.86;96342.97;5028775;28;20037;-70
2021/05/20 02:40:08;;;;;;;3.63;2.42;;;9.10;81.40;;;7.57;78.83;96344.94;5012068;28;20033;-70
2021/05/20 02:42:34;;;;;;;3.42;2.70;;;9.10;81.50;;;7.55;79.25;96346.91;4996053;28;20079;-70
2021/05/20 02:44:59;;;;;;;3.25;2.33;;;9.10;81.40;;;7.53;79.36;96341.03;4995299;28;20040;-69
2021/05/20 02:47:25;;;;;;;3.28;2.60;;;9.00;81.30;;;7.50;79.21;96338.72;5009033;28;20480;-70
2021/05/20 02:49:51;;;;;;;4.32;2.65;;;9.00;81.50;;;7.46;79.00;96340.84;5011598;28;20038;-70
2021/05/20 02:52:16;;;;;;;5.47;2.65;;;8.90;81.50;;;7.42;79.44;96344.75;5028466;28;20073;-70
2021/05/20 02:54:42;;;;;;;3.63;2.30;;;9.00;81.60;;;7.39;78.74;96342.47;5028550;28;20029;-70
2021/05/20 02:57:08;;;;;;;2.85;2.47;;;8.80;81.30;;;7.37;79.49;96350.50;5012334;28;20523;-70
2021/05/20 02:59:35;;;;;;;4.43;2.15;;;8.80;81.30;;;7.33;79.71;96354.41;5027901;28;20061;-70
2021/05/20 03:02:06;;;;;;;3.15;2.20;;;8.80;81.30;;;7.29;79.45;96345.25;5025326;28;20413;-70
2021/05/20 03:04:36;;;;;;;4.15;2.40;;;8.80;81.50;;;7.28;79.85;96351.47;5010045;28;20034;-71
2021/05/20 03:07:03;;;;;;;5.20;2.70;;;8.80;81.40;;;7.25;79.42;96346.56;5016167;28;20058;-70
2021/05/20 03:09:28;;;;;;;3.83;2.15;;;8.80;81.40;;;7.26;79.08;96347.41;5010473;28;20065;-71
2021/05/20 03:11:57;;;;;;;5.38;2.33;;;8.90;81.30;;;7.24;79.62;96358.03;5042695;28;20041;-70
2021/05/20 03:14:24;;;;;;;4.43;2.60;;;8.80;81.20;;;7.22;79.45;96351.28;5026227;28;20524;-71
2021/05/20 03:16:49;;;;;;;3.97;2.80;;;8.80;81.40;;;7.19;79.18;96355.06;5035918;28;20107;-70
2021/05/20 03:19:15;;;;;;;3.47;2.45;;;8.80;81.20;;;7.17;79.43;96354.41;5005977;28;20485;-71
2021/05/20 03:21:41;;;;;;;3.13;2.67;;;8.70;81.30;;;7.15;79.28;96353.75;5011986;28;20084;-70
2021/05/20 03:24:08;;;;;;;3.28;2.50;;;8.70;81.10;;;7.11;79.87;96360.28;4995401;28;20112;-70
2021/05/20 03:26:33;;;;;;;4.50;2.70;;;8.60;81.30;;;7.11;79.37;96365.50;5027700;28;20512;-71
2021/05/20 03:28:59;;;;;;;4.50;2.95;;;8.60;81.50;;;7.05;79.34;96356.53;5027953;28;20037;-71
2021/05/20 03:31:25;;;;;;;3.90;2.20;;;8.60;81.70;;;7.03;79.24;96355.88;5010103;28;20029;-64
2021/05/20 03:33:51;;;;;;;2.92;1.90;;;8.60;81.60;;;7.02;79.93;96359.47;5017997;28;20025;-70
2021/05/20 03:36:16;;;;;;;2.47;1.80;;;8.60;81.40;;;6.98;80.09;96354.69;5026553;28;20438;-70
2021/05/20 03:38:42;;;;;;;4.00;1.85;;;8.50;81.60;;;6.96;79.43;96354.03;5025103;28;20657;-68
2021/05/20 03:41:08;;;;;;;3.38;2.03;;;8.60;81.60;;;6.96;80.03;96359.25;4991918;28;20107;-69
2021/05/20 03:43:35;;;;;;;3.58;1.92;;;8.50;81.70;;;6.93;79.88;96362.19;5016177;28;20053;-69
2021/05/20 03:46:00;;;;;;;3.22;1.75;;;8.50;81.70;;;6.92;80.49;96356.16;5027888;28;20033;-69
2021/05/20 03:48:26;;;;;;;3.60;1.77;;;8.60;81.50;;;6.93;79.83;96357.78;5026971;28;20457;-69
2021/05/20 03:50:52;;;;;;;3.00;1.60;;;8.70;81.20;;;6.96;79.75;96356.66;4991608;28;20448;-69
2021/05/20 03:53:18;;;;;;;2.63;1.70;;;8.70;81.30;;;7.00;80.38;96357.94;4992177;28;20033;-69
2021/05/20 03:55:46;;;;;;;2.95;1.30;;;8.70;81.10;;;7.05;79.93;96366.97;5001191;28;20048;-68
2021/05/20 03:58:12;;;;;;;3.17;1.55;;;8.80;81.20;;;7.08;79.92;96360.59;5027281;28;20124;-69
2021/05/20 04:00:38;;;;;;;1.98;1.33;;;8.90;80.80;;;7.14;80.09;96367.81;5020999;28;20041;-69
2021/05/20 04:03:04;;;;;;;2.95;1.40;;;8.90;81.20;;;7.17;79.73;96367.47;5027294;28;20029;-69
2021/05/20 04:05:29;;;;;;;5.25;1.50;;;8.90;81.20;;;7.23;79.79;96374.66;5026852;28;20068;-69
2021/05/20 04:07:55;;;;;;;2.25;1.33;;;9.10;81.10;;;7.29;80.57;96368.81;5027117;28;20037;-69
2021/05/20 04:10:21;;;;;;;2.53;1.60;;;9.10;80.60;;;7.32;80.52;96368.50;5027000;28;20500;-70
2021/05/20 04:12:47;;;;;;;2.00;1.40;;;9.20;80.50;;;7.37;80.45;96376.66;5009800;28;20152;-69
2021/05/20 04:15:13;;;;;;;1.80;1.33;;;9.20;80.50;;;7.40;80.16;96379.94;5020110;28;20030;-69
2021/05/20 04:17:39;;;;;;;1.75;1.20;;;9.20;80.60;;;7.42;80.37;96372.75;5009550;28;20072;-70
2021/05/20 04:20:06;;;;;;;2.17;1.33;;;9.20;80.60;;;7.48;79.38;96380.78;5010355;28;20033;-69
2021/05/20 04:22:31;;;;;;;2.70;1.33;;;9.20;80.20;;;7.50;79.55;96380.63;5018771;28;20037;-70
2021/05/20 04:24:57;;;;;;;2.50;1.30;;;9.30;80.40;;;7.52;79.88;96384.69;5007274;28;20029;-70
2021/05/20 04:27:23;;;;;;;3.33;1.60;;;9.30;80.40;;;7.56;80.13;96391.25;5028448;28;20041;-70
2021/05/20 04:29:48;;;;;;;3.42;2.10;;;9.30;80.30;;;7.61;80.19;96390.75;5021987;28;20494;-74
2021/05/20 04:32:14;;;;;;;3.58;2.05;;;9.40;80.50;;;7.64;79.48;96398.28;5009274;28;20045;-71
2021/05/20 04:34:42;;;;;;;5.03;1.90;;;9.40;80.10;;;7.66;80.41;96391.88;5003961;28;20041;-68
2021/05/20 04:37:08;;;;;;;3.53;1.55;;;9.40;80.70;;;7.71;79.60;96394.03;5030082;28;20525;-71
2021/05/20 04:39:34;;;;;;;2.53;1.45;;;9.50;80.70;;;7.75;79.70;96395.34;5021649;28;20121;-72
2021/05/20 04:42:00;;;;;;;4.03;1.45;;;9.50;80.40;;;7.77;80.02;96397.81;5024367;28;20500;-73
2021/05/20 04:44:26;;;;;;;1.60;1.10;;;9.50;80.20;;;7.78;79.74;96399.44;5011668;28;20081;-72
2021/05/20 04:46:52;;;;;;;3.50;1.30;;;9.50;80.10;;;7.80;79.67;96406.13;5028069;28;20056;-73
2021/05/20 04:49:18;;;;;;;2.17;1.20;;;9.40;80.60;;;7.82;79.43;96400.75;5030027;28;20053;-73
2021/05/20 04:51:44;;;;;;;2.30;1.40;;;9.60;80.50;;;7.85;79.79;96406.47;5014255;28;20113;-74
2021/05/20 04:54:09;;;;;;;3.25;1.50;;;9.60;80.10;;;7.89;79.64;96415.63;5030390;28;20040;-74
2021/05/20 04:56:35;;;;;;;2.03;1.20;;;9.70;79.80;;;7.93;79.51;96413.50;5030229;28;20522;-73
2021/05/20 04:59:02;;;;;;;3.53;1.50;;;9.70;79.40;;;8.01;79.46;96415.31;5013859;28;20377;-73
2021/05/20 05:01:28;;;;;;;2.72;1.55;;;9.90;79.40;;;8.05;79.45;96416.59;5016665;28;20060;-73
2021/05/20 05:03:53;;;;;;;2.83;1.75;;;9.90;78.70;;;8.12;79.43;96421.00;4994234;28;20371;-73
2021/05/20 05:06:19;;;;;;;5.20;1.80;;;9.90;78.00;;;8.19;79.04;96429.88;5010170;28;20104;-74
2021/05/20 05:08:45;;;;;;;2.75;1.55;;;10.00;78.10;;;8.28;79.03;96426.22;5010237;28;20038;-73
2021/05/20 05:11:10;;;;;;;3.25;1.83;;;10.20;78.50;;;8.39;78.99;96427.72;5029092;28;20405;-73
2021/05/20 05:13:36;;;;;;;2.78;2.03;;;10.20;77.80;;;8.43;78.74;96433.44;4997813;28;20029;-73
2021/05/20 05:16:02;;;;;;;5.15;1.90;;;10.20;77.40;;;8.46;78.31;96426.06;5030488;28;20171;-73
2021/05/20 05:18:28;;;;;;;3.70;1.80;;;10.20;77.40;;;8.49;78.01;96430.97;5012649;28;20524;-73
2021/05/20 05:20:53;;;;;;;2.88;1.63;;;10.20;77.00;;;8.48;77.67;96428.53;5013223;28;20053;-73
2021/05/20 05:23:20;;;;;;;4.80;2.83;;;10.20;77.10;;;8.49;77.91;96433.59;4997300;28;20037;-73
2021/05/20 05:25:49;;;;;;;2.97;2.10;;;10.20;77.80;;;8.52;77.41;96437.69;5013749;28;20057;-73
2021/05/20 05:28:15;;;;;;;11.15;6.93;;;10.20;76.90;;;8.50;77.91;96442.28;5029492;28;20061;-73
2021/05/20 05:30:41;;;;;;;7.68;4.95;;;10.20;77.30;;;8.54;77.99;96436.53;5029551;28;20037;-73
2021/05/20 05:33:07;;;;;;;4.40;2.78;;;10.40;76.60;;;8.62;77.52;96443.56;5030133;28;20053;-73
2021/05/20 05:35:33;;;;;;;2.92;2.00;;;10.60;76.40;;;8.67;77.39;96445.69;5013389;28;20049;-73
2021/05/20 05:37:59;;;;;;;4.53;2.38;;;10.60;75.90;;;8.70;77.96;96450.59;5029707;28;20438;-73
2021/05/20 05:40:24;;;;;;;5.72;3.53;;;10.60;75.90;;;8.80;77.33;96449.41;5045665;28;20443;-73
2021/05/20 05:42:50;;;;;;;3.75;2.20;;;10.90;75.30;;;8.88;77.16;96448.56;5030127;28;20117;-73
2021/05/20 05:45:16;;;;;;;4.43;2.83;;;10.90;74.90;;;8.97;76.70;96455.41;5022829;28;20040;-74
2021/05/20 05:47:42;;;;;;;11.25;6.28;;;11.10;74.40;;;9.06;77.07;96449.16;5009620;28;20075;-73
2021/05/20 05:50:11;;;;;;;12.55;6.13;;;11.20;73.60;;;9.15;76.57;96458.63;4993406;28;20381;-73
2021/05/20 05:52:37;;;;;;;10.98;6.65;;;11.30;73.70;;;9.29;76.56;96461.53;4993650;28;20454;-73
2021/05/20 05:55:04;;;;;;;9.75;5.10;;;11.50;73.50;;;9.41;76.37;96465.38;5010009;28;20060;-73
2021/05/20 05:57:30;;;;;;;4.07;1.70;;;11.60;72.40;;;9.47;76.15;96464.69;4997678;28;20030;-74
2021/05/20 05:59:56;;;;;;;3.90;1.83;;;11.50;72.80;;;9.52;75.31;96465.00;5029846;28;20076;-72
2021/05/20 06:02:22;;;;;;;2.33;1.40;;;11.40;72.10;;;9.58;75.14;96474.81;5011812;28;20061;-73
2021/05/20 06:04:50;;;;;;;2.65;1.70;;;11.50;72.10;;;9.63;74.85;96472.47;5013025;28;20037;-73
2021/05/20 06:07:16;;;;;;;3.10;1.30;;;11.50;72.60;;;9.68;74.54;96480.63;5013041;28;20066;-73
2021/05/20 06:09:43;;;;;;;1.90;1.30;;;11.60;71.90;;;9.76;75.15;96490.31;5012634;28;20152;-71
2021/05/20 06:12:08;;;;;;;3.80;2.13;;;11.70;71.80;;;9.80;74.02;96481.88;5029563;28;20389;-73
2021/05/20 06:14:37;;;;;;;4.13;2.42;;;11.80;71.40;;;9.85;74.39;96485.78;5008677;28;20044;-73
2021/05/20 06:17:03;;;;;;;9.52;6.57;;;11.70;70.40;;;9.95;74.23;96489.81;5011474;28;20052;-73
2021/05/20 06:19:29;;;;;;;3.95;2.83;;;12.10;70.90;;;10.09;74.49;96490.88;5020423;28;20022;-73
2021/05/20 06:21:54;;;;;;;7.00;4.85;;;12.40;70.20;;;10.20;73.65;96495.72;5029331;28;20497;-73
2021/05/20 06:24:20;;;;;;;5.50;3.20;;;12.30;69.70;;;10.31;73.32;96486.63;5045089;28;20042;-73
2021/05/20 06:26:46;;;;;;;5.32;3.60;;;12.50;69.30;;;10.38;73.73;96493.63;5029267;28;20041;-73
2021/05/20 06:29:11;;;;;;;3.80;1.85;;;12.50;69.90;;;10.43;72.95;96491.28;5028534;28;20184;-73
2021/05/20 06:31:37;;;;;;;3.75;1.45;;;12.40;68.90;;;10.48;72.62;96492.56;5028686;28;20033;-73
2021/05/20 06:34:03;;;;;;;2.50;1.60;;;12.30;68.90;;;10.49;72.45;96488.94;5029025;28;20040;-73
2021/05/20 06:36:29;;;;;;;4.03;2.63;;;12.30;68.80;;;10.53;71.64;96492.84;5028281;28;20171;-72
2021/05/20 06:38:55;;;;;;;2.83;1.65;;;12.50;68.70;;;10.53;72.66;96500.72;5028543;28;20042;-73
2021/05/20 06:41:20;;;;;;;4.60;2.30;;;12.40;68.80;;;10.57;72.85;96502.81;5012179;28;20083;-73
2021/05/20 06:43:46;;;;;;;6.07;2.30;;;12.60;68.10;;;10.63;72.01;96501.28;5028740;28;20099;-73
2021/05/20 06:46:13;;;;;;;6.05;4.63;;;12.60;68.00;;;10.73;71.67;96496.59;4997675;28;20064;-73
2021/05/20 06:48:38;;;;;;;4.47;2.97;;;12.90;67.60;;;10.82;71.55;96500.75;5010601;28;20072;-73
2021/05/20 06:51:05;;;;;;;4.25;2.85;;;13.00;67.20;;;10.91;71.67;96497.06;4992725;28;20473;-73
2021/05/20 06:53:32;;;;;;;3.35;1.60;;;13.10;66.80;;;11.02;71.96;96501.03;4976132;28;20034;-73
2021/05/20 06:56:00;;;;;;;2.65;1.30;;;13.20;66.50;;;11.12;71.50;96503.41;4992889;28;20049;-73
2021/05/20 07:01:11;;;;;;;3.05;1.40;;;13.60;66.30;;;11.27;70.13;96499.75;5000708;28;20035;-73
2021/05/20 07:03:36;;;;;;;2.45;1.20;;;13.40;64.40;;;11.37;70.01;96504.75;4996073;28;20033;-73
2021/05/20 07:06:02;;;;;;;4.38;1.30;;;14.20;63.30;;;11.62;69.92;96500.81;5029055;28;20028;-73
2021/05/20 07:08:28;;;;;;;3.47;1.10;;;14.60;59.80;;;11.83;69.57;96504.50;5028121;28;20069;-73
2021/05/20 07:10:55;;;;;;;1.88;1.02;;;14.40;59.60;;;11.91;68.91;96504.38;5028076;28;20103;-73
2021/05/20 07:13:21;;;;;;;4.45;1.10;;;14.10;60.10;;;11.88;68.90;96502.94;5012350;28;20048;-73
2021/05/20 07:15:48;;;;;;;2.22;1.10;;;14.00;61.20;;;11.93;68.07;96510.28;5029096;28;20033;-74
2021/05/20 07:18:14;;;;;;;2.80;1.00;;;14.10;61.80;;;11.99;68.10;96504.25;4996333;28;20531;-74
2021/05/20 07:20:40;;;;;;;2.60;1.00;;;14.40;60.20;;;12.06;67.45;96504.34;5010858;28;20064;-74
2021/05/20 07:23:12;;;;;;;1.77;0.93;;;14.40;60.50;;;12.16;66.26;96504.81;5009548;28;20057;-74
2021/05/20 07:25:38;;;;;;;2.80;1.10;;;14.50;60.30;;;12.25;67.95;96507.16;5025290;28;20036;-73
2021/05/20 07:28:05;;;;;;;2.75;1.38;;;14.50;60.40;;;12.23;66.90;96496.00;4993118;28;20038;-74
2021/05/20 07:30:31;;;;;;;2.75;1.20;;;14.20;59.80;;;12.22;66.43;96504.91;5011465;28;20651;-74
2021/05/20 07:32:56;;;;;;;2.72;1.50;;;14.10;60.10;;;12.17;66.14;96504.63;5028150;28;20049;-74
2021/05/20 07:35:22;;;;;;;5.40;1.60;;;14.10;60.50;;;12.20;65.82;96506.06;5028434;28;20033;-74
2021/05/20 07:37:48;;;;;;;6.15;4.28;;;14.10;60.40;;;12.16;65.98;96503.00;5011999;28;20578;-73
2021/05/20 07:40:15;;;;;;;5.30;4.13;;;14.10;60.10;;;12.18;65.58;96503.63;5028783;28;20357;-72
2021/05/20 07:42:41;;;;;;;5.95;4.93;;;14.20;60.50;;;12.23;66.24;96503.09;5011841;28;20119;-74
2021/05/20 07:45:07;;;;;;;2.65;1.90;;;14.50;59.80;;;12.37;65.87;96496.09;5028574;28;20045;-73
2021/05/20 07:47:33;;;;;;;4.95;3.17;;;15.40;56.90;;;12.64;65.81;96497.91;5028445;28;20461;-74
2021/05/20 07:49:59;;;;;;;3.35;2.20;;;16.00;55.70;;;13.11;66.32;96489.28;5011885;28;20034;-73
2021/05/20 07:52:24;;;;;;;2.33;1.02;;;17.10;53.30;;;13.66;65.63;96489.38;5027363;28;20401;-74
2021/05/20 07:54:52;;;;;;;3.13;1.02;;;17.40;52.00;;;14.05;66.03;96492.13;5012131;28;20521;-73
2021/05/20 07:57:18;;;;;;;1.70;1.00;;;17.10;52.20;;;14.21;64.25;96490.09;5029538;28;20029;-73
2021/05/20 07:59:43;;;;;;;3.72;2.20;;;16.60;52.50;;;14.19;63.34;96492.13;5027982;28;20114;-73
2021/05/20 08:04:39;;;;;;;1.23;0.50;;;15.90;51.90;;;14.01;60.98;96493.50;5028205;28;20571;-74
2021/05/20 08:07:54;;;;;;;2.08;0.73;;;15.60;52.90;;;13.89;61.01;96492.50;5015013;28;20044;-73
2021/05/20 08:10:11;;;;;;;1.77;0.70;;;15.60;53.90;;;13.77;62.27;96488.78;5020878;28;20056;-74
2021/05/20 08:12:37;;;;;;;1.70;0.82;;;15.60;55.40;;;13.65;61.54;96493.03;5031364;28;20038;-74
2021/05/20 08:15:04;;;;;;;1.73;0.43;;;15.60;54.90;;;13.56;61.09;96496.84;5015289;28;20715;-74
2021/05/20 08:17:30;;;;;;;2.05;0.90;;;15.30;54.00;;;13.45;60.63;96493.75;5031465;28;20120;-73
2021/05/20 08:19:56;;;;;;;1.55;0.70;;;15.40;54.40;;;13.42;61.37;96496.81;5010212;28;20018;-74
2021/05/20 08:22:22;;;;;;;1.63;0.60;;;15.70;53.70;;;13.59;60.96;96496.47;5002843;28;20092;-74
2021/05/20 08:24:48;;;;;;;1.05;0.63;;;16.40;51.00;;;13.97;60.74;96494.13;4979695;28;20026;-73
2021/05/20 08:27:14;;;;;;;2.30;0.88;;;17.30;50.50;;;14.44;60.80;96489.72;5011950;28;20030;-74
2021/05/20 08:29:39;;;;;;;2.13;0.60;;;17.80;49.10;;;14.95;60.75;96474.84;5027631;28;20057;-74
2021/05/20 08:32:05;;;;;;;1.50;0.60;;;18.50;45.20;;;15.30;59.20;96482.47;5011546;28;20062;-73
2021/05/20 08:34:31;;;;;;;0.93;0.63;;;18.10;47.60;;;15.59;57.74;96479.34;5027221;28;20121;-74
2021/05/20 08:36:57;;;;;;;2.05;0.60;;;18.30;44.20;;;15.80;56.64;96472.09;5019230;28;20037;-73
2021/05/20 08:39:23;;;;;;;0.50;0.47;;;18.40;45.10;;;16.04;55.94;96476.66;5009430;28;20069;-73
2021/05/20 08:41:53;;;;;;;1.70;0.70;;;18.70;44.20;;;16.31;53.08;96460.56;5014390;28;20528;-73
2021/05/20 08:44:19;;;;;;;1.83;0.60;;;19.10;43.50;;;16.46;55.73;96469.00;5014737;28;20147;-73
2021/05/20 08:46:45;;;;;;;1.75;0.80;;;18.60;44.90;;;16.40;55.34;96465.38;5013924;28;20041;-73
2021/05/20 08:49:14;;;;;;;1.25;0.90;;;18.30;44.90;;;16.29;54.50;96470.56;5030573;28;20043;-73
2021/05/20 08:51:43;;;;;;;1.60;0.65;;;18.10;45.80;;;16.09;53.12;96473.38;4998660;28;20471;-73
2021/05/20 08:54:09;;;;;;;1.92;0.80;;;17.70;47.40;;;15.90;54.50;96470.63;5031341;28;20136;-73
2021/05/20 08:56:35;;;;;;;1.10;0.60;;;17.60;46.70;;;15.70;54.91;96471.75;5013671;28;20492;-73
2021/05/20 08:59:01;;;;;;;1.48;0.60;;;17.40;48.00;;;15.51;55.07;96471.59;5014285;28;20037;-74
2021/05/20 09:01:36;;;;;;;2.63;0.88;;;17.30;48.70;;;15.65;53.29;96467.09;4994371;28;20183;-73
2021/05/20 09:04:02;;;;;;;2.10;1.00;;;18.40;46.40;;;15.78;55.22;96467.00;5011548;28;20038;-73
2021/05/20 09:06:35;;;;;;;4.38;2.45;;;18.30;46.10;;;15.79;51.69;96465.97;5010833;28;20535;-73
2021/05/20 09:09:02;;;;;;;2.00;1.20;;;18.00;44.80;;;15.61;54.70;96466.72;5014581;28;20044;-73
2021/05/20 09:11:28;;;;;;;1.77;0.65;;;17.40;46.40;;;15.43;54.62;96479.78;5014494;28;20621;-72
2021/05/20 09:14:01;;;;;;;3.08;0.70;;;17.10;48.20;;;15.12;53.39;96479.69;5014343;28;20068;-72
2021/05/20 09:16:27;;;;;;;1.48;0.50;;;16.60;50.90;;;14.83;55.00;96478.31;5014151;28;20484;-72
2021/05/20 09:18:52;;;;;;;0.80;0.60;;;16.10;52.20;;;14.63;56.18;96478.34;4993772;28;20061;-72
2021/05/20 09:21:18;;;;;;;1.17;0.60;;;16.20;52.70;;;14.46;56.53;96483.22;5012088;28;20456;-73
2021/05/20 09:23:48;;;;;;;2.15;0.80;;;15.90;54.20;;;14.30;56.48;96475.66;4994810;28;20454;-72
2021/05/20 09:26:14;;;;;;;1.17;0.90;;;16.10;53.80;;;14.47;56.21;96484.84;4994790;28;20041;-72
2021/05/20 09:28:49;;;;;;;1.65;0.70;;;16.70;51.70;;;14.51;55.88;96486.09;5009913;28;20050;-72
2021/05/20 09:31:16;;;;;;;0.63;0.43;;;16.40;52.00;;;14.41;56.49;96475.88;4995209;28;20026;-72
2021/05/20 09:33:54;;;;;;;2.40;1.38;;;16.10;51.50;;;14.31;54.72;96475.47;5011838;28;20109;-71
2021/05/20 09:36:23;;;;;;;0.75;0.50;;;16.00;50.90;;;14.22;55.06;96470.56;4993615;28;20038;-72
2021/05/20 09:38:49;;;;;;;0.77;0.30;;;16.00;49.80;;;14.18;55.70;96479.91;4993471;28;20053;-72
2021/05/20 09:41:19;;;;;;;0.80;0.28;;;16.30;48.30;;;14.26;54.63;96477.09;4990525;28;20033;-72
2021/05/20 09:43:46;;;;;;;1.33;0.40;;;16.60;47.30;;;14.48;55.43;96470.59;4990550;28;20030;-72
2021/05/20 09:46:14;;;;;;;0.70;0.40;;;17.20;47.30;;;14.70;54.25;96469.34;4980924;28;20042;-72
2021/05/20 09:48:43;;;;;;;1.45;0.30;;;17.60;46.70;;;14.91;53.79;96459.53;4977266;28;20076;-71
2021/05/20 09:51:25;;;;;;;1.05;0.25;;;17.40;46.40;;;15.23;52.82;96471.09;4994029;28;20120;-73
2021/05/20 09:53:52;;;;;;;4.35;2.00;;;18.60;43.70;;;15.75;54.41;96462.13;5010161;28;20052;-72
2021/05/20 09:56:42;;;;;;;0.50;0.40;;;19.60;42.30;;;16.45;51.88;96454.91;4993943;28;20022;-71
2021/05/20 09:59:12;;;;;;;1.02;0.43;;;20.80;40.30;;;17.07;54.21;96449.66;4993469;28;20121;-73
2021/05/20 10:01:40;;;;;;;0.73;0.38;;;21.60;36.70;;;17.60;53.33;96449.84;5010129;28;20416;-72
2021/05/20 10:04:07;;;;;;;0.55;0.25;;;21.70;37.70;;;18.00;52.37;96467.97;4994464;28;20037;-72
2021/05/20 10:06:37;;;;;;;1.98;0.30;;;20.70;36.90;;;17.66;46.95;96469.44;4993146;28;20049;-73
2021/05/20 10:09:08;;;;;;;0.20;0.20;;;19.10;38.80;;;17.22;48.07;96473.25;5013694;28;20029;-72
2021/05/20 10:11:34;;;;;;;1.02;0.35;;;18.30;42.00;;;16.72;50.83;96484.75;5013961;28;20124;-72
2021/05/20 10:14:03;;;;;;;0.45;0.25;;;17.50;46.70;;;16.14;51.37;96481.50;5030244;28;20037;-72
2021/05/20 10:16:28;;;;;;;0.30;0.30;;;16.60;49.80;;;15.62;52.04;96478.13;5021820;28;20686;-72
2021/05/20 10:18:54;;;;;;;0.68;0.30;;;16.10;50.40;;;15.18;52.27;96477.03;4977354;28;20069;-71
2021/05/20 10:21:21;;;;;;;0.43;0.20;;;16.30;50.40;;;14.90;52.23;96473.81;4990505;28;20042;-72
2021/05/20 10:23:46;;;;;;;1.48;0.30;;;16.10;49.10;;;14.74;52.37;96476.91;4958710;28;20472;-73
2021/05/20 10:26:13;;;;;;;2.95;2.10;;;16.40;49.00;;;14.73;53.31;96470.00;5008578;28;20041;-74
2021/05/20 10:28:39;;;;;;;1.35;1.00;;;17.10;50.90;;;15.03;54.78;96463.19;4993299;28;20041;-73